PATC/TNC METAR and TAF weather

Enter ICAO airport designator
Station Type Date Time Source
PATC METAR 2021/09/16 22:17 UTC NOAA

PATC 162217Z AUTO 03023KT 10SM BKN017 04/00 A2972 RMK AO2 PK WND 02027/2208 SLP067


Station Type Date Time Source
PATC Decoded METAR 2021/09/16 22:17 UTC NOAA

Tin City Airways Facilities Sector, AK, United States (PATC) 65-34N 167-55W
Sep 16, 2021 - 06:17 PM EDT / 2021.09.16 2217 UTC
Wind: from the NNE (030 degrees) at 26 MPH (23 KT):0
Visibility: 10 mile(s):0
Sky conditions: mostly cloudy
Temperature: 39 F (4 C)
Dew Point: 32 F (0 C)
Relative Humidity: 75%
Pressure (altimeter): 29.72 in. Hg (1006 hPa)
ob: PATC 162217Z AUTO 03023KT 10SM BKN017 04/00 A2972 RMK AO2 PK WND 02027/2208 SLP067
cycle: 22

Station Type Date Time Source
PATC TAF 2016/08/27 04:12 UTC NOAA

TAF PATC 270400Z 2704/2810 18012G18KT 0400 FG OVC002 QNH3015INS TX10/2718Z TN06/2710Z

Example: see airport list